createdAt,value
2018-08-12T00:00:02.652Z,0
2018-08-12T00:00:43.196Z,0
2018-08-12T00:01:23.705Z,0
2018-08-12T00:02:04.213Z,0
2018-08-12T00:02:44.790Z,0
2018-08-12T00:03:25.247Z,0
2018-08-12T00:04:05.736Z,0
2018-08-12T00:04:46.245Z,0
2018-08-12T00:05:26.742Z,0
2018-08-12T00:06:07.191Z,0
2018-08-12T00:06:47.750Z,0
2018-08-12T00:07:28.210Z,0
2018-08-12T00:08:08.736Z,0
2018-08-12T00:08:49.270Z,0
2018-08-12T00:09:29.738Z,0
2018-08-12T00:10:10.218Z,0
2018-08-12T00:10:50.768Z,0
2018-08-12T00:11:31.249Z,0
2018-08-12T00:12:11.733Z,0
2018-08-12T00:12:52.208Z,0
2018-08-12T00:13:32.708Z,0
2018-08-12T00:14:13.198Z,0
2018-08-12T00:14:53.700Z,0
2018-08-12T00:15:34.195Z,0
2018-08-12T00:16:14.705Z,0
2018-08-12T00:16:55.200Z,0
2018-08-12T00:17:35.677Z,0
2018-08-12T00:18:16.183Z,0
2018-08-12T00:18:56.720Z,0
2018-08-12T00:19:37.205Z,0
2018-08-12T00:20:17.722Z,0
2018-08-12T00:20:58.200Z,0
2018-08-12T00:21:38.722Z,0
2018-08-12T00:22:19.198Z,0
2018-08-12T00:22:59.712Z,0
2018-08-12T00:23:40.227Z,0
2018-08-12T00:24:20.885Z,0
2018-08-12T00:25:01.327Z,0
2018-08-12T00:25:41.827Z,0
2018-08-12T00:26:22.334Z,0
2018-08-12T00:27:02.961Z,0
2018-08-12T00:27:43.469Z,0
2018-08-12T00:28:23.967Z,0
2018-08-12T00:29:04.488Z,0
2018-08-12T00:29:45.013Z,0
2018-08-12T00:30:25.486Z,0
2018-08-12T00:31:05.993Z,0
2018-08-12T00:31:46.482Z,0
2018-08-12T00:32:27.005Z,0
2018-08-12T00:33:07.474Z,0
2018-08-12T00:33:47.997Z,0
2018-08-12T00:34:28.495Z,0
2018-08-12T00:35:09.053Z,0
2018-08-12T00:35:49.507Z,0
2018-08-12T00:36:30.048Z,0
2018-08-12T00:37:10.543Z,0
2018-08-12T00:37:51.041Z,0
2018-08-12T00:38:31.485Z,0
2018-08-12T00:39:12.028Z,0
2018-08-12T00:39:52.496Z,0
2018-08-12T00:40:33.056Z,0
2018-08-12T00:41:13.575Z,0
2018-08-12T00:41:54.057Z,0
2018-08-12T00:42:34.518Z,0
2018-08-12T00:43:15.031Z,0
2018-08-12T00:43:55.536Z,0
2018-08-12T00:44:36.026Z,0
2018-08-12T00:45:16.550Z,0
2018-08-12T00:45:57.012Z,0
2018-08-12T00:46:37.512Z,0
2018-08-12T00:47:18.024Z,0
2018-08-12T00:47:58.563Z,0
2018-08-12T00:48:39.036Z,0
2018-08-12T00:49:19.529Z,0
2018-08-12T00:50:00.017Z,0
2018-08-12T00:50:40.552Z,0
2018-08-12T00:51:21.013Z,0
2018-08-12T00:52:01.528Z,0
2018-08-12T00:52:42.013Z,0
2018-08-12T00:53:22.526Z,0
2018-08-12T00:54:03.019Z,0
2018-08-12T00:54:43.521Z,0
2018-08-12T00:55:24.028Z,0
2018-08-12T00:56:04.534Z,0
2018-08-12T00:56:45.046Z,0
2018-08-12T00:57:25.569Z,0
2018-08-12T00:58:06.003Z,0
2018-08-12T00:58:46.543Z,0
2018-08-12T00:59:27.004Z,0
2018-08-12T01:00:07.465Z,0
2018-08-12T01:00:47.927Z,0
2018-08-12T01:01:28.452Z,0
2018-08-12T01:02:08.964Z,0
2018-08-12T01:02:49.454Z,0
2018-08-12T01:03:29.971Z,0
2018-08-12T01:04:10.664Z,0
2018-08-12T01:04:51.140Z,0
2018-08-12T01:05:31.641Z,0
2018-08-12T01:06:12.115Z,0
2018-08-12T01:06:52.624Z,0
2018-08-12T01:07:33.198Z,0
2018-08-12T01:08:13.688Z,0
2018-08-12T01:08:54.196Z,0
2018-08-12T01:09:34.721Z,0
2018-08-12T01:10:15.187Z,0
2018-08-12T01:10:55.759Z,0
2018-08-12T01:11:36.266Z,0
2018-08-12T01:12:16.754Z,0
2018-08-12T01:14:30.051Z,0
2018-08-12T01:15:10.581Z,0
2018-08-12T01:15:51.066Z,0
2018-08-12T01:16:31.707Z,0
2018-08-12T01:17:12.059Z,0
2018-08-12T01:17:52.551Z,0
2018-08-12T01:18:33.071Z,0
2018-08-12T01:19:13.536Z,0
2018-08-12T01:19:54.032Z,0
2018-08-12T01:20:34.512Z,0
2018-08-12T01:21:15.059Z,0
2018-08-12T01:21:55.531Z,0
2018-08-12T01:22:36.030Z,0
2018-08-12T01:23:16.524Z,0
2018-08-12T01:23:57.071Z,0
2018-08-12T01:24:37.480Z,0
2018-08-12T01:25:17.964Z,0
2018-08-12T01:25:58.464Z,0
2018-08-12T01:26:38.914Z,0
2018-08-12T01:27:19.442Z,0
2018-08-12T01:27:59.925Z,0
2018-08-12T01:28:40.418Z,0
2018-08-12T01:29:20.922Z,0
2018-08-12T01:30:01.408Z,0
2018-08-12T01:30:41.950Z,0
2018-08-12T01:31:22.399Z,0
2018-08-12T01:32:02.878Z,0
2018-08-12T01:32:43.434Z,0
2018-08-12T01:33:23.878Z,0
2018-08-12T01:34:04.383Z,0
2018-08-12T01:34:44.904Z,0
2018-08-12T01:35:25.439Z,0
2018-08-12T01:36:05.942Z,0
2018-08-12T01:36:46.473Z,0
2018-08-12T01:37:27.902Z,0
2018-08-12T01:38:08.351Z,0
2018-08-12T01:38:48.860Z,0
2018-08-12T01:39:29.325Z,0
2018-08-12T01:40:09.852Z,0
2018-08-12T01:40:50.346Z,0
2018-08-12T01:41:30.864Z,0
2018-08-12T01:42:11.354Z,0
2018-08-12T01:42:51.857Z,0
2018-08-12T01:43:32.321Z,0
2018-08-12T01:44:12.793Z,0
2018-08-12T01:44:53.287Z,0
2018-08-12T01:45:33.767Z,0
2018-08-12T01:46:14.267Z,0
2018-08-12T01:46:54.740Z,0
2018-08-12T01:47:35.237Z,0
2018-08-12T01:48:15.732Z,0
2018-08-12T01:48:56.393Z,0
2018-08-12T01:49:36.837Z,0
2018-08-12T01:50:17.342Z,0
2018-08-12T01:50:57.852Z,0
2018-08-12T01:51:38.333Z,0
2018-08-12T01:52:18.815Z,0
2018-08-12T01:52:59.331Z,0
2018-08-12T01:53:39.783Z,0
2018-08-12T01:54:20.435Z,0
2018-08-12T01:55:00.949Z,0
2018-08-12T01:55:41.433Z,0
2018-08-12T01:56:21.947Z,0
2018-08-12T01:57:02.446Z,0
2018-08-12T01:57:42.933Z,0
2018-08-12T01:58:23.490Z,0
2018-08-12T01:59:03.941Z,0
2018-08-12T01:59:44.428Z,0
2018-08-12T02:00:24.913Z,0
2018-08-12T02:01:05.426Z,0
2018-08-12T02:01:45.934Z,0
2018-08-12T02:02:26.395Z,0
2018-08-12T02:03:06.860Z,0
2018-08-12T02:03:47.503Z,0
2018-08-12T02:04:27.966Z,0
2018-08-12T02:05:08.488Z,0
2018-08-12T02:05:48.981Z,0
2018-08-12T02:06:29.474Z,0
2018-08-12T02:07:09.960Z,0
2018-08-12T02:07:50.570Z,0
2018-08-12T02:08:31.030Z,0
2018-08-12T02:09:11.632Z,0
2018-08-12T02:09:52.089Z,0
2018-08-12T02:10:32.592Z,0
2018-08-12T02:11:13.126Z,0
2018-08-12T02:11:53.614Z,0
2018-08-12T02:12:34.085Z,0
2018-08-12T02:13:14.591Z,0
2018-08-12T02:13:55.157Z,0
2018-08-12T02:14:35.724Z,0
2018-08-12T02:15:16.175Z,0
2018-08-12T02:15:56.644Z,0
2018-08-12T02:16:37.200Z,0
2018-08-12T02:17:17.687Z,0
2018-08-12T02:17:58.218Z,0
2018-08-12T02:18:38.753Z,0
2018-08-12T02:19:19.264Z,0
2018-08-12T02:19:59.745Z,0
2018-08-12T02:20:40.263Z,0
2018-08-12T02:21:20.744Z,0
2018-08-12T02:22:01.280Z,0
2018-08-12T02:22:41.771Z,0
2018-08-12T02:23:22.247Z,0
2018-08-12T02:24:02.737Z,0
2018-08-12T02:24:43.341Z,0
2018-08-12T02:25:23.856Z,0
2018-08-12T02:26:04.403Z,0
2018-08-12T02:26:44.889Z,0
2018-08-12T02:27:25.352Z,0
2018-08-12T02:28:05.821Z,0
2018-08-12T02:28:46.297Z,0
2018-08-12T02:29:26.825Z,0
2018-08-12T02:30:07.359Z,0
2018-08-12T02:30:47.878Z,0
2018-08-12T02:31:28.379Z,0
2018-08-12T02:32:08.889Z,0
2018-08-12T02:32:49.397Z,0
2018-08-12T02:33:29.962Z,0
2018-08-12T02:34:10.500Z,0
2018-08-12T02:34:50.960Z,0
2018-08-12T02:35:31.441Z,0
2018-08-12T02:36:11.965Z,0
2018-08-12T02:36:52.429Z,0
2018-08-12T02:37:32.921Z,0
2018-08-12T02:38:13.425Z,0
2018-08-12T02:38:53.931Z,0
2018-08-12T02:39:34.417Z,0
2018-08-12T02:40:15.016Z,0
2018-08-12T02:40:55.385Z,0
2018-08-12T02:41:35.878Z,0
2018-08-12T02:42:16.390Z,0
2018-08-12T02:42:57.098Z,0
2018-08-12T02:43:37.613Z,0
2018-08-12T02:44:18.041Z,0
2018-08-12T02:44:58.530Z,0
2018-08-12T02:45:39.036Z,0
2018-08-12T02:46:19.543Z,0
2018-08-12T02:47:00.059Z,0
2018-08-12T02:47:40.529Z,0
2018-08-12T02:48:21.039Z,0
2018-08-12T02:49:01.518Z,0
2018-08-12T02:49:42.044Z,0
2018-08-12T02:50:22.546Z,0
2018-08-12T02:51:03.042Z,0
2018-08-12T02:51:43.493Z,0
2018-08-12T02:52:23.982Z,0
2018-08-12T02:53:04.507Z,0
2018-08-12T02:53:44.959Z,0
2018-08-12T02:54:25.479Z,0
2018-08-12T02:55:05.972Z,0
2018-08-12T02:55:46.489Z,0
2018-08-12T02:56:27.026Z,0
2018-08-12T02:57:07.438Z,0
2018-08-12T02:57:47.978Z,0
2018-08-12T02:58:28.492Z,0
2018-08-12T02:59:08.980Z,0
2018-08-12T02:59:49.487Z,0
2018-08-12T03:00:30.047Z,0
2018-08-12T03:01:10.520Z,0
2018-08-12T03:01:51.033Z,0
2018-08-12T03:04:20.472Z,0
2018-08-12T03:05:00.966Z,0
2018-08-12T03:05:41.530Z,0
2018-08-12T03:06:21.980Z,0
2018-08-12T03:07:02.441Z,0
2018-08-12T03:07:42.913Z,0
2018-08-12T03:08:23.484Z,0
2018-08-12T03:09:03.948Z,0
2018-08-12T03:09:44.443Z,0
2018-08-12T03:10:24.896Z,0
2018-08-12T03:11:05.389Z,0
2018-08-12T03:11:45.817Z,0
2018-08-12T03:12:26.316Z,0
2018-08-12T03:13:06.829Z,0
2018-08-12T03:13:47.318Z,0
2018-08-12T03:14:27.769Z,0
2018-08-12T03:15:08.229Z,0
2018-08-12T03:15:48.728Z,0
2018-08-12T03:16:29.260Z,0
2018-08-12T03:17:09.884Z,0
2018-08-12T03:17:50.229Z,0
2018-08-12T03:18:30.721Z,0
2018-08-12T03:19:11.216Z,0
2018-08-12T03:19:51.753Z,0
2018-08-12T03:20:32.204Z,0
2018-08-12T03:21:12.708Z,0
2018-08-12T03:21:53.227Z,0
2018-08-12T03:22:33.794Z,0
2018-08-12T03:23:14.195Z,0
2018-08-12T03:23:54.685Z,0
2018-08-12T03:24:35.152Z,0
2018-08-12T03:25:15.664Z,0
2018-08-12T03:25:56.145Z,0
2018-08-12T03:26:36.609Z,0
2018-08-12T03:27:17.100Z,0
2018-08-12T03:27:57.601Z,0
2018-08-12T03:28:38.162Z,0
2018-08-12T03:29:18.614Z,0
2018-08-12T03:29:59.154Z,0
2018-08-12T03:30:39.594Z,0
2018-08-12T03:31:20.089Z,0
2018-08-12T03:32:00.674Z,0
2018-08-12T03:32:41.200Z,0
2018-08-12T03:33:21.654Z,0
2018-08-12T03:34:02.224Z,0
2018-08-12T03:34:42.664Z,0
2018-08-12T03:35:23.157Z,0
2018-08-12T03:36:03.677Z,0
2018-08-12T03:36:44.209Z,0
2018-08-12T03:37:24.645Z,0
2018-08-12T03:38:05.133Z,0
2018-08-12T03:38:45.615Z,0
2018-08-12T03:39:26.112Z,0
2018-08-12T03:40:06.587Z,0
2018-08-12T03:40:47.123Z,0
2018-08-12T03:41:27.604Z,0
2018-08-12T03:42:08.132Z,0
2018-08-12T03:42:48.669Z,0
2018-08-12T03:43:29.129Z,0
2018-08-12T03:44:09.667Z,0
2018-08-12T03:44:50.156Z,0
2018-08-12T03:45:30.601Z,0
2018-08-12T03:46:11.149Z,0
2018-08-12T03:46:51.640Z,0
2018-08-12T03:47:32.141Z,0
2018-08-12T03:48:12.646Z,0
2018-08-12T03:48:53.245Z,0
2018-08-12T03:49:33.642Z,0
2018-08-12T03:50:14.424Z,0
2018-08-12T03:50:54.756Z,0
2018-08-12T03:51:35.272Z,0
2018-08-12T03:52:15.776Z,0
2018-08-12T03:52:56.296Z,0
2018-08-12T03:53:36.757Z,0
2018-08-12T03:54:17.283Z,0
2018-08-12T03:54:58.059Z,0
2018-08-12T03:55:38.530Z,0
2018-08-12T03:56:19.086Z,0
2018-08-12T03:56:59.559Z,0
2018-08-12T03:57:40.025Z,0
2018-08-12T03:58:20.706Z,0
2018-08-12T03:59:01.205Z,0
2018-08-12T03:59:41.669Z,0
2018-08-12T04:00:22.156Z,0
2018-08-12T04:01:02.647Z,0
2018-08-12T04:01:43.118Z,0
2018-08-12T04:02:23.674Z,0
2018-08-12T04:03:04.109Z,0
2018-08-12T04:03:44.618Z,0
2018-08-12T04:04:25.116Z,0
2018-08-12T04:05:05.580Z,0
2018-08-12T04:05:46.080Z,0
2018-08-12T04:06:26.566Z,0
2018-08-12T04:07:07.085Z,0
2018-08-12T04:07:47.569Z,0
2018-08-12T04:08:28.066Z,0
2018-08-12T04:09:08.617Z,5
2018-08-12T04:09:49.114Z,5
2018-08-12T04:10:29.571Z,5
2018-08-12T04:11:10.085Z,5
2018-08-12T04:11:50.622Z,5
2018-08-12T04:12:31.139Z,5
2018-08-12T04:13:11.619Z,5
2018-08-12T04:13:52.072Z,5
2018-08-12T04:14:32.576Z,5
2018-08-12T04:15:13.126Z,5
2018-08-12T04:15:53.635Z,5
2018-08-12T04:18:32.360Z,10
2018-08-12T04:19:12.834Z,10
2018-08-12T04:19:53.356Z,10
2018-08-12T04:20:33.853Z,10
2018-08-12T04:21:14.354Z,10
2018-08-12T04:21:54.845Z,10
2018-08-12T04:22:35.343Z,10
2018-08-12T04:23:15.829Z,15
2018-08-12T04:23:56.346Z,15
2018-08-12T04:24:36.828Z,15
2018-08-12T04:25:17.386Z,15
2018-08-12T04:25:57.846Z,15
2018-08-12T04:26:38.378Z,15
2018-08-12T04:27:18.844Z,15
2018-08-12T04:27:59.391Z,15
2018-08-12T04:28:39.859Z,20
2018-08-12T04:29:20.374Z,20
2018-08-12T04:30:00.867Z,20
2018-08-12T04:30:41.427Z,20
2018-08-12T04:31:22.015Z,20
2018-08-12T04:32:02.438Z,20
2018-08-12T04:32:43.114Z,20
2018-08-12T04:33:23.585Z,25
2018-08-12T04:34:04.093Z,25
2018-08-12T04:34:44.520Z,25
2018-08-12T04:35:25.035Z,25
2018-08-12T04:36:05.520Z,25
2018-08-12T04:36:46.055Z,25
2018-08-12T04:37:26.512Z,25
2018-08-12T04:38:07.003Z,25
2018-08-12T04:38:47.459Z,30
2018-08-12T04:39:27.928Z,30
2018-08-12T04:40:08.433Z,30
2018-08-12T04:40:48.935Z,30
2018-08-12T04:41:29.416Z,30
2018-08-12T04:42:09.929Z,30
2018-08-12T04:42:50.421Z,30
2018-08-12T04:43:30.943Z,35
2018-08-12T04:44:11.489Z,35
2018-08-12T04:44:51.970Z,35
2018-08-12T04:45:32.446Z,35
2018-08-12T04:46:13.026Z,35
2018-08-12T04:46:53.416Z,35
2018-08-12T04:47:34.027Z,35
2018-08-12T04:48:14.517Z,40
2018-08-12T04:48:54.998Z,40
2018-08-12T04:49:35.506Z,40
2018-08-12T04:50:15.964Z,40
2018-08-12T04:50:56.471Z,40
2018-08-12T04:51:36.963Z,40
2018-08-12T04:52:17.416Z,40
2018-08-12T04:52:57.895Z,45
2018-08-12T04:53:38.420Z,45
2018-08-12T04:54:18.981Z,45
2018-08-12T04:54:59.441Z,45
2018-08-12T04:55:39.913Z,45
2018-08-12T04:56:21.351Z,45
2018-08-12T04:57:01.850Z,45
2018-08-12T04:57:42.373Z,50
2018-08-12T04:58:22.884Z,50
2018-08-12T04:59:03.422Z,50
2018-08-12T04:59:43.896Z,50
2018-08-12T05:00:24.452Z,50
2018-08-12T05:01:04.944Z,50
2018-08-12T05:01:45.428Z,50
2018-08-12T05:02:25.902Z,50
2018-08-12T05:03:06.423Z,50
2018-08-12T05:03:46.949Z,55
2018-08-12T05:04:27.395Z,55
2018-08-12T05:05:07.904Z,55
2018-08-12T05:05:48.409Z,55
2018-08-12T05:06:28.916Z,55
2018-08-12T05:07:09.400Z,55
2018-08-12T05:07:49.881Z,55
2018-08-12T05:08:30.376Z,55
2018-08-12T05:09:10.862Z,55
2018-08-12T05:09:51.353Z,60
2018-08-12T05:10:31.836Z,60
2018-08-12T05:11:12.342Z,60
2018-08-12T05:11:52.848Z,60
2018-08-12T05:12:33.348Z,60
2018-08-12T05:13:13.877Z,60
2018-08-12T05:13:54.382Z,60
2018-08-12T05:14:34.884Z,60
2018-08-12T05:15:15.356Z,60
2018-08-12T05:15:55.859Z,60
2018-08-12T05:16:36.346Z,65
2018-08-12T05:17:16.859Z,65
2018-08-12T05:17:57.360Z,65
2018-08-12T05:18:37.860Z,65
2018-08-12T05:19:18.393Z,65
2018-08-12T05:19:58.861Z,65
2018-08-12T05:20:39.392Z,65
2018-08-12T05:21:19.867Z,65
2018-08-12T05:22:00.357Z,65
2018-08-12T05:22:40.855Z,65
2018-08-12T05:23:21.389Z,65
2018-08-12T05:24:01.891Z,65
2018-08-12T05:24:42.421Z,65
2018-08-12T05:25:22.930Z,70
2018-08-12T05:26:03.431Z,70
2018-08-12T05:26:43.873Z,70
2018-08-12T05:27:24.385Z,70
2018-08-12T05:28:04.856Z,70
2018-08-12T05:28:45.353Z,70
2018-08-12T05:29:25.926Z,70
2018-08-12T05:31:39.194Z,70
2018-08-12T05:32:19.792Z,70
2018-08-12T05:33:00.270Z,70
2018-08-12T05:33:40.757Z,70
2018-08-12T05:34:21.245Z,75
2018-08-12T05:35:01.748Z,75
2018-08-12T05:35:42.224Z,75
2018-08-12T05:36:22.707Z,75
2018-08-12T05:37:03.258Z,75
2018-08-12T05:37:43.724Z,75
2018-08-12T05:38:24.233Z,75
2018-08-12T05:39:04.706Z,75
2018-08-12T05:39:45.212Z,75
2018-08-12T05:40:25.745Z,75
2018-08-12T05:41:06.246Z,75
2018-08-12T05:41:46.751Z,75
2018-08-12T05:42:27.235Z,80
2018-08-12T05:43:07.737Z,80
2018-08-12T05:43:48.271Z,85
2018-08-12T05:44:28.700Z,90
2018-08-12T05:45:09.224Z,90
2018-08-12T05:45:49.724Z,95
2018-08-12T05:46:30.247Z,105
2018-08-12T05:47:10.778Z,115
2018-08-12T05:47:51.256Z,125
2018-08-12T05:48:31.748Z,135
2018-08-12T05:49:12.238Z,145
2018-08-12T05:49:52.751Z,150
2018-08-12T05:50:33.261Z,155
2018-08-12T05:51:13.849Z,160
2018-08-12T05:51:54.216Z,160
2018-08-12T05:52:34.710Z,155
2018-08-12T05:53:15.216Z,155
2018-08-12T05:53:58.382Z,150
2018-08-12T05:54:36.242Z,150
2018-08-12T05:55:16.705Z,145
2018-08-12T05:55:57.212Z,145
2018-08-12T05:56:37.715Z,145
2018-08-12T05:57:18.251Z,140
2018-08-12T05:58:06.483Z,135
2018-08-12T05:58:45.390Z,130
2018-08-12T05:59:26.025Z,130
2018-08-12T06:00:06.503Z,125
2018-08-12T06:02:40.167Z,115
2018-08-12T06:03:20.663Z,110
2018-08-12T06:04:01.163Z,105
2018-08-12T06:04:41.665Z,105
2018-08-12T06:05:22.154Z,100
2018-08-12T06:06:02.714Z,100
2018-08-12T06:06:43.210Z,100
2018-08-12T06:07:23.679Z,105
2018-08-12T06:08:04.125Z,110
2018-08-12T06:08:44.764Z,115
2018-08-12T06:09:25.148Z,120
2018-08-12T06:10:05.655Z,120
2018-08-12T06:10:46.093Z,125
2018-08-12T06:11:26.587Z,130
2018-08-12T06:12:07.054Z,130
2018-08-12T06:12:47.864Z,135
2018-08-12T06:13:28.381Z,135
2018-08-12T06:14:08.918Z,135
2018-08-12T06:14:49.409Z,135
2018-08-12T06:15:29.977Z,135
2018-08-12T06:16:10.478Z,135
2018-08-12T06:16:50.980Z,135
2018-08-12T06:17:35.041Z,130
2018-08-12T06:18:15.597Z,130
2018-08-12T06:18:56.047Z,125
2018-08-12T06:19:36.495Z,125
2018-08-12T06:20:17.010Z,120
2018-08-12T06:20:57.453Z,115
2018-08-12T06:21:37.975Z,110
2018-08-12T06:22:18.406Z,105
2018-08-12T06:22:58.932Z,105
2018-08-12T06:23:39.439Z,105
2018-08-12T06:24:19.934Z,100
2018-08-12T06:25:00.385Z,100
2018-08-12T06:25:40.880Z,105
2018-08-12T06:26:21.380Z,100
2018-08-12T06:27:01.879Z,100
2018-08-12T06:27:42.366Z,100
2018-08-12T06:28:22.897Z,100
2018-08-12T06:29:03.393Z,100
2018-08-12T06:29:43.871Z,100
2018-08-12T06:30:24.372Z,100
2018-08-12T06:31:04.935Z,100
2018-08-12T06:31:45.430Z,100
2018-08-12T06:32:25.976Z,100
2018-08-12T06:33:06.414Z,100
2018-08-12T06:33:46.939Z,100
2018-08-12T06:34:27.536Z,100
2018-08-12T06:35:07.966Z,100
2018-08-12T06:35:48.503Z,100
2018-08-12T06:36:28.965Z,100
2018-08-12T06:37:09.451Z,100
2018-08-12T06:37:49.937Z,100
2018-08-12T06:38:30.441Z,100
2018-08-12T06:39:10.935Z,100
2018-08-12T06:39:51.474Z,100
2018-08-12T06:40:31.954Z,100
2018-08-12T06:41:12.454Z,105
2018-08-12T06:41:52.944Z,105
2018-08-12T06:42:33.419Z,105
2018-08-12T06:43:13.901Z,105
2018-08-12T06:43:54.431Z,110
2018-08-12T06:44:34.916Z,110
2018-08-12T06:45:15.476Z,115
2018-08-12T06:45:56.021Z,120
2018-08-12T06:46:36.484Z,125
2018-08-12T06:47:17.020Z,130
2018-08-12T06:47:57.520Z,135
2018-08-12T06:48:38.037Z,140
2018-08-12T06:49:18.545Z,145
2018-08-12T06:49:59.048Z,150
2018-08-12T06:50:39.548Z,160
2018-08-12T06:51:20.076Z,165
2018-08-12T06:52:00.662Z,170
2018-08-12T06:52:41.038Z,175
2018-08-12T06:53:21.588Z,175
2018-08-12T06:54:02.066Z,180
2018-08-12T06:54:42.559Z,190
2018-08-12T06:55:23.066Z,185
2018-08-12T06:56:03.593Z,185
2018-08-12T06:56:44.087Z,185
2018-08-12T06:57:24.549Z,190
2018-08-12T06:58:05.078Z,190
2018-08-12T06:58:45.549Z,190
2018-08-12T06:59:26.011Z,190
2018-08-12T07:00:06.541Z,190
2018-08-12T07:00:47.034Z,190
2018-08-12T07:01:27.505Z,190
2018-08-12T07:02:08.063Z,195
2018-08-12T07:02:48.518Z,195
2018-08-12T07:03:29.012Z,195
2018-08-12T07:04:09.473Z,195
2018-08-12T07:04:49.993Z,195
2018-08-12T07:05:30.487Z,195
2018-08-12T07:06:10.948Z,195
2018-08-12T07:06:51.484Z,195
2018-08-12T07:07:31.980Z,195
2018-08-12T07:08:12.472Z,195
2018-08-12T07:08:52.991Z,195
2018-08-12T07:09:33.449Z,195
2018-08-12T07:10:13.927Z,195
2018-08-12T07:10:54.417Z,195
2018-08-12T07:11:34.932Z,195
2018-08-12T07:12:15.447Z,195
2018-08-12T07:12:55.913Z,195
2018-08-12T07:13:36.413Z,195
2018-08-12T07:14:16.913Z,195
2018-08-12T07:14:57.432Z,195
2018-08-12T07:15:37.926Z,195
2018-08-12T07:16:18.439Z,195
2018-08-12T07:16:58.961Z,195
2018-08-12T07:17:39.435Z,195
2018-08-12T07:18:19.947Z,195
2018-08-12T07:19:00.485Z,195
2018-08-12T07:19:40.921Z,195
2018-08-12T07:20:21.427Z,195
2018-08-12T07:21:02.097Z,195
2018-08-12T07:21:42.636Z,195
2018-08-12T07:22:23.146Z,195
2018-08-12T07:23:03.625Z,195
2018-08-12T07:23:44.153Z,195
2018-08-12T07:24:24.643Z,195
2018-08-12T07:25:05.138Z,195
2018-08-12T07:25:45.628Z,195
2018-08-12T07:26:26.129Z,195
2018-08-12T07:27:06.692Z,195
2018-08-12T07:27:47.155Z,195
2018-08-12T07:28:27.580Z,195
2018-08-12T07:29:08.112Z,195
2018-08-12T07:29:48.557Z,195
2018-08-12T07:30:29.018Z,195
2018-08-12T07:31:09.565Z,195
2018-08-12T07:31:50.089Z,195
2018-08-12T07:32:30.515Z,190
2018-08-12T07:33:11.070Z,190
2018-08-12T07:33:51.560Z,190
2018-08-12T07:34:32.045Z,190
2018-08-12T07:35:12.582Z,190
2018-08-12T07:35:53.043Z,190
2018-08-12T07:36:33.524Z,190
2018-08-12T07:37:14.053Z,190
2018-08-12T07:37:54.557Z,185
2018-08-12T07:38:35.237Z,185
2018-08-12T07:39:15.566Z,185
2018-08-12T07:39:56.063Z,185
2018-08-12T07:52:43.641Z,175
2018-08-12T07:53:24.172Z,175
2018-08-12T07:54:04.684Z,175
2018-08-12T07:54:45.222Z,170
2018-08-12T07:55:25.777Z,170
2018-08-12T07:56:06.276Z,170
2018-08-12T07:56:46.881Z,170
2018-08-12T07:57:27.316Z,165
2018-08-12T07:58:07.839Z,165
2018-08-12T07:58:48.425Z,165
2018-08-12T07:59:28.973Z,165
2018-08-12T08:00:09.503Z,160
2018-08-12T08:00:50.012Z,160
2018-08-12T08:01:30.531Z,160
2018-08-12T08:02:11.036Z,160
2018-08-12T08:02:51.522Z,160
2018-08-12T08:03:32.036Z,155
2018-08-12T08:04:12.641Z,155
2018-08-12T08:04:53.013Z,155
2018-08-12T08:05:33.529Z,155
2018-08-12T08:06:14.146Z,155
2018-08-12T08:06:54.619Z,150
2018-08-12T08:07:35.075Z,150
2018-08-12T08:08:15.584Z,150
2018-08-12T08:08:56.098Z,150
2018-08-12T08:09:36.629Z,150
2018-08-12T08:10:17.084Z,145
2018-08-12T08:10:57.614Z,140
2018-08-12T08:11:38.087Z,140
2018-08-12T08:12:18.569Z,130
2018-08-12T08:12:59.098Z,130
2018-08-12T08:13:39.570Z,130
2018-08-12T08:14:20.138Z,125
2018-08-12T08:15:00.630Z,125
2018-08-12T08:15:41.198Z,125
2018-08-12T08:16:21.672Z,125
2018-08-12T08:17:02.195Z,125
2018-08-12T08:17:42.727Z,125
2018-08-12T08:18:23.229Z,125
2018-08-12T08:19:03.748Z,125
2018-08-12T08:19:44.329Z,125
2018-08-12T08:20:24.925Z,125
2018-08-12T08:21:05.313Z,120
2018-08-12T08:21:45.817Z,120
2018-08-12T08:22:26.373Z,120
2018-08-12T08:23:06.836Z,120
2018-08-12T08:23:48.235Z,120
2018-08-12T08:24:28.723Z,120
2018-08-12T08:25:09.160Z,120
2018-08-12T08:25:49.776Z,120
2018-08-12T08:26:30.208Z,120
2018-08-12T08:27:11.153Z,115
2018-08-12T08:27:51.649Z,115
2018-08-12T08:28:32.166Z,115
2018-08-12T08:29:12.805Z,115
2018-08-12T08:29:53.289Z,115
2018-08-12T08:30:33.803Z,115
2018-08-12T08:31:14.342Z,115
2018-08-12T08:31:55.109Z,115
2018-08-12T08:32:35.361Z,110
2018-08-12T08:33:15.907Z,110
2018-08-12T08:33:56.450Z,110
2018-08-12T08:34:37.045Z,110
2018-08-12T08:35:17.587Z,110
2018-08-12T08:35:58.106Z,110
2018-08-12T08:36:38.593Z,110
2018-08-12T08:37:19.116Z,110
2018-08-12T08:37:59.762Z,110
2018-08-12T08:38:40.170Z,110
2018-08-12T08:39:20.691Z,110
2018-08-12T08:40:01.208Z,110
2018-08-12T08:40:41.713Z,105
2018-08-12T08:41:22.175Z,105
2018-08-12T08:42:02.731Z,105
2018-08-12T08:42:43.196Z,105
2018-08-12T08:43:23.759Z,105
2018-08-12T08:44:04.337Z,105
2018-08-12T08:44:44.721Z,105
2018-08-12T08:45:25.284Z,105
2018-08-12T08:46:05.720Z,105
2018-08-12T08:46:46.200Z,105
2018-08-12T08:47:26.706Z,105
2018-08-12T08:48:07.927Z,105
2018-08-12T08:48:48.680Z,105
2018-08-12T08:49:29.590Z,105
2018-08-12T08:50:10.110Z,105
2018-08-12T08:50:50.648Z,105
2018-08-12T08:51:31.109Z,105
2018-08-12T08:52:11.548Z,105
2018-08-12T08:52:52.109Z,105
2018-08-12T08:53:32.589Z,105
2018-08-12T08:54:13.290Z,105
2018-08-12T08:54:54.354Z,105
2018-08-12T08:55:35.262Z,105
2018-08-12T08:56:15.730Z,105
2018-08-12T08:56:56.166Z,105
2018-08-12T08:57:36.826Z,105
2018-08-12T08:58:17.341Z,105
2018-08-12T08:58:57.875Z,105
2018-08-12T08:59:38.402Z,105
2018-08-12T09:00:18.926Z,105
2018-08-12T09:00:59.496Z,105
2018-08-12T09:01:40.100Z,105
2018-08-12T09:02:20.559Z,105
2018-08-12T09:03:01.154Z,105
2018-08-12T09:03:41.589Z,105
2018-08-12T09:04:22.117Z,105
2018-08-12T09:05:02.642Z,105
2018-08-12T09:05:43.167Z,105
2018-08-12T09:06:23.674Z,105
2018-08-12T09:07:04.311Z,105
2018-08-12T09:07:44.716Z,105
2018-08-12T09:08:25.555Z,105
2018-08-12T09:09:06.060Z,105
2018-08-12T09:09:46.312Z,105
2018-08-12T09:10:26.805Z,105
2018-08-12T09:11:07.321Z,105
2018-08-12T09:11:47.801Z,105
2018-08-12T09:12:28.430Z,105
2018-08-12T09:13:08.925Z,105
2018-08-12T09:13:49.430Z,105
2018-08-12T09:14:29.989Z,105
2018-08-12T09:15:10.490Z,105
2018-08-12T09:15:51.047Z,105
2018-08-12T09:16:31.526Z,105
2018-08-12T09:17:12.036Z,105
2018-08-12T09:17:52.521Z,105
2018-08-12T09:18:32.968Z,105
2018-08-12T09:19:13.477Z,105
2018-08-12T09:19:53.976Z,105
2018-08-12T09:20:34.492Z,105
2018-08-12T09:21:14.961Z,105
2018-08-12T09:21:55.472Z,105
2018-08-12T09:22:36.059Z,105
2018-08-12T09:23:16.545Z,105
2018-08-12T09:23:57.120Z,110
2018-08-12T09:24:37.581Z,105
2018-08-12T09:25:18.577Z,105
2018-08-12T09:25:59.403Z,105
2018-08-12T09:26:46.276Z,105
2018-08-12T09:27:26.761Z,105
2018-08-12T09:28:08.344Z,105
2018-08-12T09:28:49.883Z,105
2018-08-12T09:29:31.362Z,105
2018-08-12T09:30:11.860Z,105
2018-08-12T09:30:52.589Z,105
2018-08-12T09:31:33.015Z,105
2018-08-12T09:32:13.642Z,105
2018-08-12T09:32:54.056Z,105
2018-08-12T09:33:34.604Z,105
2018-08-12T09:34:15.097Z,105
2018-08-12T09:34:55.577Z,105
2018-08-12T09:35:36.199Z,105
2018-08-12T09:36:16.657Z,105
2018-08-12T09:36:57.214Z,105
2018-08-12T09:37:37.669Z,105
2018-08-12T09:38:18.156Z,105
2018-08-12T09:38:58.876Z,105
2018-08-12T09:39:39.210Z,105
2018-08-12T09:40:19.821Z,105
2018-08-12T09:41:00.341Z,105
2018-08-12T09:41:40.821Z,105
2018-08-12T09:42:21.318Z,100
2018-08-12T09:43:01.858Z,105
2018-08-12T09:43:42.330Z,105
2018-08-12T09:44:22.909Z,105
2018-08-12T09:45:03.474Z,105
2018-08-12T09:45:43.961Z,100
2018-08-12T09:46:24.522Z,100
2018-08-12T09:47:05.009Z,100
2018-08-12T09:47:45.507Z,105
2018-08-12T09:48:26.084Z,105
2018-08-12T09:49:06.516Z,105
2018-08-12T09:49:47.021Z,105
2018-08-12T09:50:28.020Z,105
2018-08-12T09:51:08.561Z,105
2018-08-12T09:51:49.187Z,100
2018-08-12T09:52:29.532Z,100
2018-08-12T09:53:10.038Z,100
2018-08-12T09:53:50.523Z,100
2018-08-12T09:54:31.088Z,100
2018-08-12T09:55:11.581Z,100
2018-08-12T09:55:52.203Z,100
2018-08-12T09:56:32.679Z,100
2018-08-12T09:57:13.758Z,100
2018-08-12T09:57:54.221Z,100
2018-08-12T09:58:34.969Z,100
2018-08-12T09:59:15.269Z,100